Kings Mountain, North Carolina
Current Conditions -  °F | °C
As of 9:54 AM on Sunday 23 Nov 2014 (Local Time) from KAKH Reporting Station
Moderate Rain Moderate Rain  
Wind Chill: 38°   Ceiling: 10000
Heat Index: 43°   Visibility: 4mi
Dew Point: 39°   Wind: 8mph
Humidity: 86%   Direction: 20°NNE
Pressure: 30.18"   Gusts: NA
Location:  35.24°N, 81.34°W
Report Text: KAKH 231454Z AUTO 02007KT 4SM RA BR FEW075 OVC100 06/04 A3018 RMK AO2 RAB00E25B40 SLP223 P0002 60009 T00610039 58013
Loading
Personal Weather Stations






























Interactive Weather Map New forecast layout! Learn more

10-Day Weather Forecast

Advertisements
Track Severe Weather on mobile